Time;durP1;ratioP1;P1;durP2;ratioP2;P2;SDS_P1;SDS_P2;PMS_P1;PMS_P2;Temp;Humidity;BMP_temperature;BMP_pressure;BME280_temperature;BME280_humidity;BME280_pressure;Samples;Min_cycle;Max_cycle;Signal;HPM_P1;HPM_P2
2022/06/03 00:01:51;;;;;;;13.57;6.40;;;11.50;99.90;;;;;;5019175;28;20021;-58
2022/06/03 00:04:23;;;;;;;9.27;6.18;;;11.40;99.90;;;;;;5000019;28;20053;-58
2022/06/03 00:07:10;;;;;;;11.45;6.82;;;11.40;99.90;;;;;;5017572;28;20451;-58
2022/06/03 00:10:14;;;;;;;15.05;6.82;;;11.50;99.90;;;;;;5018032;28;20026;-57
2022/06/03 00:13:26;;;;;;;15.38;6.22;;;11.40;99.90;;;;;;5017160;28;20049;-60
2022/06/03 00:15:58;;;;;;;14.13;5.70;;;11.40;99.90;;;;;;5017634;28;20563;-57
2022/06/03 00:18:36;;;;;;;13.95;7.30;;;11.30;99.90;;;;;;5018159;28;20181;-56
2022/06/03 00:21:05;;;;;;;13.93;6.70;;;11.30;99.90;;;;;;5017459;28;20030;-57
2022/06/03 00:24:07;;;;;;;12.73;6.35;;;11.30;99.90;;;;;;5016354;28;20409;-57
2022/06/03 00:27:26;;;;;;;11.60;6.75;;;11.30;99.90;;;;;;5016756;28;20368;-57
2022/06/03 00:30:04;;;;;;;12.60;7.55;;;11.20;99.90;;;;;;4902170;29;20127;-57
2022/06/03 00:32:49;;;;;;;16.83;7.85;;;11.20;99.90;;;;;;5015935;28;20097;-59
2022/06/03 00:35:23;;;;;;;13.93;6.65;;;11.30;99.90;;;;;;5016293;28;20033;-55
2022/06/03 00:38:16;;;;;;;14.85;6.80;;;11.20;99.90;;;;;;5016061;28;20033;-58
2022/06/03 00:40:42;;;;;;;14.48;7.57;;;11.20;99.90;;;;;;5016184;28;20030;-57
2022/06/03 00:43:34;;;;;;;16.50;7.30;;;11.20;99.90;;;;;;5016003;28;20026;-58
2022/06/03 00:46:31;;;;;;;20.35;6.97;;;11.10;99.90;;;;;;5017029;28;20018;-56
2022/06/03 00:49:08;;;;;;;10.15;6.65;;;11.20;99.90;;;;;;5015641;28;20018;-58
2022/06/03 00:51:45;;;;;;;21.48;7.75;;;11.20;99.90;;;;;;5015365;28;20368;-55
2022/06/03 00:54:26;;;;;;;13.07;8.00;;;11.10;99.90;;;;;;4997932;28;20022;-59
2022/06/03 00:57:03;;;;;;;16.67;8.07;;;11.20;99.90;;;;;;5015332;28;20022;-58
2022/06/03 00:59:37;;;;;;;12.05;6.80;;;11.10;99.90;;;;;;5015401;28;20026;-55
2022/06/03 01:02:36;;;;;;;15.30;7.88;;;11.10;99.90;;;;;;5015521;28;20103;-56
2022/06/03 01:05:03;;;;;;;14.50;7.97;;;11.00;99.90;;;;;;5015864;28;20511;-57
2022/06/03 01:07:53;;;;;;;17.58;8.15;;;11.00;99.90;;;;;;5015746;28;20022;-58
2022/06/03 01:10:34;;;;;;;21.25;8.93;;;10.90;99.90;;;;;;5015273;28;20036;-55
2022/06/03 01:13:05;;;;;;;16.15;8.23;;;11.00;99.90;;;;;;5015171;28;20522;-56
2022/06/03 01:15:59;;;;;;;21.45;8.25;;;10.90;99.90;;;;;;5015195;28;20434;-57
2022/06/03 01:19:09;;;;;;;15.50;8.27;;;10.90;99.90;;;;;;5015533;28;20513;-56
2022/06/03 01:21:47;;;;;;;13.82;7.65;;;10.80;99.90;;;;;;4970890;28;20402;-56
2022/06/03 01:24:28;;;;;;;17.23;8.77;;;10.80;99.90;;;;;;5015711;28;20052;-56
2022/06/03 01:27:32;;;;;;;16.13;8.63;;;10.80;99.90;;;;;;4998805;28;20022;-58
2022/06/03 01:30:01;;;;;;;16.55;7.75;;;10.80;99.90;;;;;;5017955;28;20034;-54
2022/06/03 01:32:47;;;;;;;15.82;8.05;;;10.80;99.90;;;;;;5035077;28;20060;-58
2022/06/03 01:35:38;;;;;;;15.40;8.30;;;10.70;99.90;;;;;;5028861;28;20022;-58
2022/06/03 01:38:38;;;;;;;14.95;9.18;;;10.70;99.90;;;;;;5035480;28;20028;-57
2022/06/03 01:41:10;;;;;;;20.58;10.07;;;10.70;99.90;;;;;;5017812;28;20022;-56
2022/06/03 01:44:06;;;;;;;17.52;9.80;;;10.70;99.90;;;;;;5036111;28;20029;-55
2022/06/03 01:46:39;;;;;;;14.93;9.50;;;10.70;99.90;;;;;;5038453;28;20493;-58
2022/06/03 01:49:10;;;;;;;20.63;9.90;;;10.60;99.90;;;;;;5037155;28;20025;-55
2022/06/03 01:52:03;;;;;;;19.60;10.27;;;10.60;99.90;;;;;;5039348;28;20028;-58
2022/06/03 01:54:46;;;;;;;16.08;9.48;;;10.60;99.90;;;;;;4986358;28;20060;-56
2022/06/03 01:57:31;;;;;;;15.25;9.55;;;10.50;99.90;;;;;;5037816;28;20025;-56
2022/06/03 02:00:26;;;;;;;16.58;9.43;;;10.50;99.90;;;;;;5036778;28;20502;-57
2022/06/03 02:02:54;;;;;;;19.75;10.30;;;10.50;99.90;;;;;;5037608;28;20021;-57
2022/06/03 02:05:45;;;;;;;19.05;9.70;;;10.40;99.90;;;;;;5037592;28;20101;-60
2022/06/03 02:08:32;;;;;;;20.00;9.95;;;10.30;99.90;;;;;;5018228;28;20541;-58
2022/06/03 02:11:01;;;;;;;16.52;9.30;;;10.40;99.90;;;;;;5036125;28;20025;-56
2022/06/03 02:13:42;;;;;;;22.45;10.02;;;10.30;99.90;;;;;;5037213;28;20060;-58
2022/06/03 02:16:39;;;;;;;18.92;10.02;;;10.30;99.90;;;;;;5036299;28;20076;-55
2022/06/03 02:19:23;;;;;;;18.88;9.70;;;10.30;99.90;;;;;;5019162;28;20025;-57
2022/06/03 02:22:10;;;;;;;22.98;10.13;;;10.30;99.90;;;;;;5036148;28;20498;-59
2022/06/03 02:25:03;;;;;;;17.13;9.57;;;10.20;99.90;;;;;;5035324;28;20037;-58
2022/06/03 02:27:35;;;;;;;18.35;11.43;;;10.20;99.90;;;;;;5035057;28;20036;-56
2022/06/03 02:30:37;;;;;;;19.35;11.70;;;10.10;99.90;;;;;;5033815;28;20071;-57
2022/06/03 02:33:24;;;;;;;23.73;12.57;;;10.20;99.90;;;;;;5033551;28;20037;-57
2022/06/03 02:36:06;;;;;;;23.17;11.43;;;10.10;99.90;;;;;;5034844;28;20026;-57
2022/06/03 02:38:43;;;;;;;25.85;13.35;;;10.10;99.90;;;;;;5035346;28;20475;-53
2022/06/03 02:41:17;;;;;;;19.80;12.13;;;10.10;99.90;;;;;;5034969;28;20433;-54
2022/06/03 02:44:10;;;;;;;20.27;13.13;;;10.00;99.90;;;;;;5035127;28;20529;-54
2022/06/03 02:46:59;;;;;;;17.92;11.55;;;10.00;99.90;;;;;;5034965;28;20420;-57
2022/06/03 02:49:40;;;;;;;21.77;12.82;;;9.90;99.90;;;;;;5034211;28;20141;-57
2022/06/03 02:52:20;;;;;;;19.33;12.70;;;10.00;99.90;;;;;;5034750;28;20028;-53
2022/06/03 02:55:13;;;;;;;24.13;13.90;;;9.90;99.90;;;;;;5033986;28;20447;-57
2022/06/03 02:58:07;;;;;;;22.00;12.45;;;9.90;99.90;;;;;;5038347;28;20029;-54
2022/06/03 03:00:54;;;;;;;24.05;12.60;;;10.00;99.90;;;;;;5037283;28;20033;-54
2022/06/03 03:03:48;;;;;;;28.05;13.68;;;9.90;99.90;;;;;;5038385;28;20091;-57
2022/06/03 03:06:51;;;;;;;22.98;13.63;;;9.90;99.90;;;;;;5038198;28;20379;-56
2022/06/03 03:10:06;;;;;;;19.88;13.45;;;9.90;99.90;;;;;;4983020;28;20125;-58
2022/06/03 03:13:19;;;;;;;28.52;13.82;;;9.90;99.90;;;;;;4983483;28;20034;-56
2022/06/03 03:15:53;;;;;;;27.83;13.82;;;9.80;99.90;;;;;;4938380;29;20095;-54
2022/06/03 03:18:41;;;;;;;23.58;14.35;;;9.90;99.90;;;;;;4938122;29;20024;-58
2022/06/03 03:21:28;;;;;;;26.65;15.32;;;9.90;99.90;;;;;;5011631;28;20041;-56
2022/06/03 03:23:53;;;;;;;22.38;14.13;;;9.90;99.90;;;;;;5038236;28;20022;-57
2022/06/03 03:26:31;;;;;;;27.45;15.63;;;9.80;99.90;;;;;;5038729;28;20148;-57
2022/06/03 03:29:09;;;;;;;27.42;15.70;;;9.80;99.90;;;;;;5037622;28;20033;-56
2022/06/03 03:31:54;;;;;;;31.83;15.95;;;9.70;99.90;;;;;;5037454;28;20017;-56
2022/06/03 03:34:38;;;;;;;31.80;15.98;;;9.70;99.90;;;;;;5037168;28;20032;-58
2022/06/03 03:37:10;;;;;;;31.83;17.60;;;9.80;99.90;;;;;;5037302;28;20033;-56
2022/06/03 03:40:22;;;;;;;24.70;15.82;;;9.80;99.90;;;;;;5037107;28;20151;-57
2022/06/03 03:43:06;;;;;;;31.38;15.32;;;9.80;99.90;;;;;;5018813;28;20033;-56
2022/06/03 03:45:59;;;;;;;25.83;16.52;;;9.80;99.90;;;;;;5037139;28;20109;-55
2022/06/03 03:48:31;;;;;;;28.38;16.50;;;9.90;99.90;;;;;;5037289;28;20018;-58
2022/06/03 03:51:04;;;;;;;30.02;16.27;;;9.80;99.90;;;;;;5036819;28;20026;-55
2022/06/03 03:53:53;;;;;;;29.25;16.90;;;9.90;99.90;;;;;;5036748;28;20026;-55
2022/06/03 03:56:53;;;;;;;27.15;17.05;;;9.80;99.90;;;;;;5036745;28;20033;-54
2022/06/03 03:59:51;;;;;;;31.17;16.65;;;9.90;99.90;;;;;;5036668;28;20037;-56
2022/06/03 04:02:38;;;;;;;27.95;16.67;;;9.80;99.90;;;;;;5036498;28;20060;-56
2022/06/03 04:05:12;;;;;;;29.58;17.58;;;9.80;99.90;;;;;;5036321;28;20030;-60
2022/06/03 04:07:44;;;;;;;26.13;16.95;;;9.90;99.90;;;;;;5036622;28;20387;-55
2022/06/03 04:10:29;;;;;;;28.23;16.60;;;9.90;99.90;;;;;;5036522;28;20035;-57
2022/06/03 04:13:20;;;;;;;31.10;16.92;;;9.90;99.90;;;;;;5036619;28;20033;-56
2022/06/03 04:16:01;;;;;;;32.35;16.70;;;10.00;99.90;;;;;;5036864;28;20030;-57
2022/06/03 04:19:04;;;;;;;27.92;16.00;;;10.10;99.90;;;;;;5036178;28;20021;-57
2022/06/03 04:21:38;;;;;;;30.60;15.50;;;10.20;99.90;;;;;;5036807;28;20483;-57
2022/06/03 04:24:12;;;;;;;30.45;15.52;;;10.30;99.90;;;;;;5018540;28;20025;-57
2022/06/03 04:26:56;;;;;;;29.55;16.20;;;10.30;99.90;;;;;;5036188;28;20083;-57
2022/06/03 04:29:52;;;;;;;24.13;15.13;;;10.30;99.90;;;;;;5036721;28;20087;-58
2022/06/03 04:32:55;;;;;;;25.35;15.68;;;10.40;99.90;;;;;;5035907;28;20025;-57
2022/06/03 04:35:59;;;;;;;24.65;14.75;;;10.40;99.90;;;;;;5037096;28;20052;-56
2022/06/03 04:38:46;;;;;;;21.52;15.23;;;10.40;99.90;;;;;;4982381;28;20035;-58
2022/06/03 04:41:49;;;;;;;27.60;16.23;;;10.50;99.90;;;;;;5018505;28;20063;-54
2022/06/03 04:44:27;;;;;;;20.73;14.20;;;10.50;99.90;;;;;;5037105;28;20032;-58
2022/06/03 04:47:23;;;;;;;27.27;13.93;;;10.60;99.90;;;;;;5027584;28;20068;-58
2022/06/03 04:50:07;;;;;;;27.17;14.70;;;10.60;99.90;;;;;;5037396;28;20044;-58
2022/06/03 04:53:10;;;;;;;24.20;14.55;;;10.70;99.90;;;;;;5037124;28;20101;-57
2022/06/03 04:55:48;;;;;;;35.65;16.20;;;10.80;99.90;;;;;;5036531;28;20516;-58
2022/06/03 04:58:33;;;;;;;25.45;12.48;;;10.90;99.90;;;;;;5036468;28;20117;-57
2022/06/03 05:01:23;;;;;;;26.77;14.20;;;11.00;99.90;;;;;;5057007;22;20108;-71
2022/06/03 05:03:57;;;;;;;24.50;13.63;;;11.10;99.90;;;;;;5054810;28;20044;-70
2022/06/03 05:07:00;;;;;;;24.80;13.70;;;11.20;99.90;;;;;;5055092;28;20021;-70
2022/06/03 05:09:29;;;;;;;19.85;12.23;;;11.30;99.90;;;;;;5054965;28;20052;-69
2022/06/03 05:12:00;;;;;;;28.00;13.25;;;11.40;99.90;;;;;;5055370;28;20024;-69
2022/06/03 05:14:57;;;;;;;23.90;13.18;;;11.40;99.90;;;;;;5055037;28;20092;-70
2022/06/03 05:17:50;;;;;;;23.05;13.55;;;11.60;99.90;;;;;;5036590;28;20025;-70
2022/06/03 05:20:30;;;;;;;21.38;12.45;;;11.60;99.90;;;;;;5036342;28;20033;-70
2022/06/03 05:23:15;;;;;;;21.90;12.43;;;11.70;99.90;;;;;;5054704;28;20032;-70
2022/06/03 05:26:05;;;;;;;16.35;11.40;;;11.80;99.90;;;;;;5054281;28;20247;-70
2022/06/03 05:29:17;;;;;;;20.92;10.95;;;12.00;99.90;;;;;;5036220;28;20047;-68
2022/06/03 05:32:02;;;;;;;15.95;9.77;;;12.00;99.90;;;;;;5054660;28;20025;-69
2022/06/03 05:34:57;;;;;;;16.33;10.25;;;12.10;99.90;;;;;;5054408;28;20025;-70
2022/06/03 05:37:58;;;;;;;16.77;10.00;;;12.20;99.90;;;;;;5054512;28;20071;-70
2022/06/03 05:40:47;;;;;;;16.52;8.82;;;12.30;99.90;;;;;;5054160;28;20056;-70
2022/06/03 05:43:34;;;;;;;16.35;9.50;;;12.40;99.90;;;;;;5054556;28;20025;-70
2022/06/03 05:46:36;;;;;;;11.30;8.07;;;12.50;99.90;;;;;;5054568;28;20024;-70
2022/06/03 05:49:09;;;;;;;20.05;8.68;;;12.60;99.90;;;;;;5053887;28;20045;-69
2022/06/03 05:51:57;;;;;;;16.77;8.02;;;12.80;99.90;;;;;;5054411;28;20025;-70
2022/06/03 05:54:44;;;;;;;20.40;8.98;;;12.90;99.90;;;;;;5053985;28;20105;-71
2022/06/03 05:57:34;;;;;;;17.48;8.75;;;13.00;99.90;;;;;;5054717;28;20033;-69
2022/06/03 06:00:15;;;;;;;14.80;9.07;;;13.10;99.90;;;;;;5036748;28;20036;-69
2022/06/03 06:02:50;;;;;;;14.60;8.27;;;13.10;99.90;;;;;;5061591;28;20021;-70
2022/06/03 06:05:48;;;;;;;14.98;8.80;;;13.20;99.90;;;;;;5058041;28;20029;-70
2022/06/03 06:08:20;;;;;;;16.25;9.15;;;13.20;99.90;;;;;;5057708;28;20021;-70
2022/06/03 06:11:07;;;;;;;15.40;7.95;;;13.30;99.90;;;;;;5060083;28;20034;-70
2022/06/03 06:14:02;;;;;;;16.55;8.45;;;13.40;99.90;;;;;;5060308;28;20029;-70
2022/06/03 06:16:40;;;;;;;24.25;7.97;;;13.50;99.90;;;;;;5003315;28;20075;-70
2022/06/03 06:19:08;;;;;;;20.15;8.32;;;13.50;99.90;;;;;;5054226;28;20029;-69
2022/06/03 06:21:50;;;;;;;18.27;8.63;;;13.60;99.90;;;;;;5053914;28;20029;-70
2022/06/03 06:24:16;;;;;;;16.85;8.75;;;13.80;99.90;;;;;;5054140;28;20091;-70
2022/06/03 06:27:20;;;;;;;14.88;8.18;;;13.90;99.90;;;;;;5053537;28;20029;-70
2022/06/03 06:29:58;;;;;;;17.20;7.88;;;14.00;99.90;;;;;;5054844;28;20028;-70
2022/06/03 06:32:26;;;;;;;10.48;7.63;;;14.00;99.90;;;;;;5057476;28;20534;-69
2022/06/03 06:35:36;;;;;;;14.13;7.18;;;14.10;99.90;;;;;;5057801;28;20036;-70
2022/06/03 06:38:15;;;;;;;16.02;7.47;;;14.20;99.90;;;;;;5057478;28;20036;-70
2022/06/03 06:40:53;;;;;;;12.38;7.32;;;14.30;99.90;;;;;;5057373;28;20038;-70
2022/06/03 06:43:37;;;;;;;13.05;6.93;;;14.40;99.90;;;;;;5057237;28;20028;-70
2022/06/03 06:46:13;;;;;;;12.73;8.05;;;14.40;99.90;;;;;;5039962;28;20074;-70
2022/06/03 06:48:56;;;;;;;16.25;6.72;;;14.60;99.90;;;;;;5055856;28;20374;-69
2022/06/03 06:51:28;;;;;;;12.68;7.20;;;14.70;99.90;;;;;;5037603;28;20025;-70
2022/06/03 06:54:09;;;;;;;13.18;6.45;;;14.80;99.90;;;;;;5020846;28;20029;-70
2022/06/03 06:57:04;;;;;;;12.65;6.60;;;14.90;99.90;;;;;;5041370;28;20028;-70
2022/06/03 06:59:40;;;;;;;12.70;5.75;;;14.90;99.90;;;;;;5043343;28;20036;-70
2022/06/03 07:02:08;;;;;;;12.32;5.40;;;15.10;99.90;;;;;;5037507;28;20029;-70
2022/06/03 07:04:41;;;;;;;11.40;5.07;;;15.20;99.90;;;;;;5019534;28;20179;-70
2022/06/03 07:07:25;;;;;;;6.20;4.20;;;15.20;99.90;;;;;;5037241;28;20068;-70
2022/06/03 07:10:05;;;;;;;9.32;5.10;;;15.30;99.90;;;;;;5019232;28;20124;-70
2022/06/03 07:12:36;;;;;;;8.73;4.65;;;15.50;99.90;;;;;;5037008;28;20057;-70
2022/06/03 07:15:07;;;;;;;;;;;15.60;99.90;;;;;;5037843;28;20029;-70
2022/06/03 07:20:51;;;;;;;11.68;4.55;;;15.90;99.90;;;;;;5037478;28;20394;-70
2022/06/03 07:23:23;;;;;;;11.13;5.10;;;16.00;99.90;;;;;;5019943;28;20124;-70
2022/06/03 07:26:10;;;;;;;8.07;4.68;;;16.10;99.90;;;;;;5038126;28;20024;-69
2022/06/03 07:28:45;;;;;;;11.07;5.00;;;16.10;99.90;;;;;;5037422;28;20087;-69
2022/06/03 07:31:27;;;;;;;10.95;4.82;;;16.20;99.90;;;;;;5037167;28;20024;-70
2022/06/03 07:34:13;;;;;;;13.98;4.75;;;16.30;99.90;;;;;;5036717;28;20132;-70
2022/06/03 07:37:15;;;;;;;12.35;4.93;;;16.40;99.90;;;;;;5036698;28;20394;-69
2022/06/03 07:40:25;;;;;;;8.93;4.50;;;16.50;99.90;;;;;;4985081;28;20037;-70
2022/06/03 07:43:02;;;;;;;8.10;4.60;;;16.60;99.90;;;;;;5036430;28;20108;-70
2022/06/03 07:45:43;;;;;;;12.90;5.05;;;16.80;99.90;;;;;;5036651;28;20355;-69
2022/06/03 07:48:16;;;;;;;9.27;4.05;;;16.90;99.90;;;;;;5036529;28;20025;-69
2022/06/03 07:50:57;;;;;;;7.63;4.10;;;17.00;99.90;;;;;;5035216;28;20025;-70
2022/06/03 07:53:32;;;;;;;8.70;3.65;;;17.00;99.90;;;;;;5036431;28;20057;-69
2022/06/03 07:55:59;;;;;;;9.10;4.30;;;17.20;99.90;;;;;;5036014;28;20025;-70
2022/06/03 07:58:29;;;;;;;8.57;3.72;;;17.30;99.90;;;;;;5036074;28;20043;-70
2022/06/03 08:00:55;;;;;;;8.83;3.20;;;17.40;99.90;;;;;;5035568;28;20072;-70
2022/06/03 08:03:23;;;;;;;6.13;3.30;;;17.50;99.90;;;;;;5035667;28;20429;-70
2022/06/03 08:05:59;;;;;;;7.75;3.40;;;17.60;99.90;;;;;;5035922;28;20018;-69
2022/06/03 08:11:17;;;;;;;10.05;2.60;;;17.80;99.90;;;;;;5036023;28;20092;-69
2022/06/03 08:13:43;;;;;;;5.50;3.20;;;17.90;99.90;;;;;;5035475;28;20029;-70
2022/06/03 08:16:25;;;;;;;6.60;3.00;;;18.00;99.90;;;;;;5035998;28;20052;-70
2022/06/03 08:18:54;;;;;;;4.32;2.65;;;18.00;99.90;;;;;;5035833;28;20025;-70
2022/06/03 08:21:27;;;;;;;8.45;3.60;;;18.00;99.90;;;;;;5035533;28;20021;-71
2022/06/03 08:23:54;;;;;;;7.68;3.47;;;18.10;99.90;;;;;;5035883;28;20109;-71
2022/06/03 08:26:24;;;;;;;4.18;3.20;;;18.00;99.90;;;;;;5035408;28;20030;-70
2022/06/03 08:29:07;;;;;;;5.82;3.22;;;18.00;99.90;;;;;;5035689;28;20025;-70
2022/06/03 08:31:34;;;;;;;6.60;3.40;;;18.10;99.90;;;;;;5035711;28;20514;-70
2022/06/03 08:34:01;;;;;;;6.55;3.15;;;18.10;99.90;;;;;;5035697;28;20029;-70
2022/06/03 08:36:35;;;;;;;7.60;2.45;;;18.20;99.90;;;;;;5035548;28;20029;-70
2022/06/03 08:39:15;;;;;;;4.97;2.95;;;18.40;99.90;;;;;;5035683;28;20064;-70
2022/06/03 08:42:08;;;;;;;6.05;2.65;;;18.50;99.90;;;;;;5035678;28;20030;-70
2022/06/03 08:44:46;;;;;;;5.20;3.22;;;18.70;99.90;;;;;;5036632;28;20482;-70
2022/06/03 08:47:18;;;;;;;6.55;3.35;;;18.80;99.90;;;;;;5035926;28;20124;-70
2022/06/03 08:49:58;;;;;;;8.27;3.15;;;19.00;99.90;;;;;;5035553;28;20035;-70
2022/06/03 08:52:49;;;;;;;7.78;2.58;;;19.10;99.90;;;;;;5035552;28;20071;-69
2022/06/03 08:55:27;;;;;;;4.95;3.30;;;19.20;99.90;;;;;;5035612;28;20026;-70
2022/06/03 08:57:59;;;;;;;5.05;2.40;;;19.30;99.90;;;;;;5035348;28;20028;-70
2022/06/03 09:00:55;;;;;;;9.43;3.40;;;19.40;99.90;;;;;;5034750;28;20033;-69
2022/06/03 09:03:23;;;;;;;3.70;2.97;;;19.40;99.90;;;;;;5036272;28;20051;-69
2022/06/03 09:05:58;;;;;;;6.13;3.22;;;19.50;99.90;;;;;;5037792;28;20049;-70
2022/06/03 09:08:35;;;;;;;5.32;3.33;;;19.50;99.90;;;;;;5037944;28;20501;-69
2022/06/03 09:11:09;;;;;;;3.00;2.35;;;19.40;99.90;;;;;;5034798;28;20033;-70
2022/06/03 09:14:00;;;;;;;5.13;2.55;;;19.40;99.90;;;;;;5034803;28;20029;-69
2022/06/03 09:16:27;;;;;;;5.97;3.03;;;19.40;99.90;;;;;;5034685;28;20021;-70
2022/06/03 09:19:01;;;;;;;3.25;2.90;;;19.40;99.90;;;;;;5034707;28;20028;-70
2022/06/03 09:21:33;;;;;;;4.50;2.42;;;19.50;99.90;;;;;;5034317;28;20108;-70
2022/06/03 09:24:21;;;;;;;3.47;2.70;;;19.50;99.90;;;;;;5034442;28;20023;-69
2022/06/03 09:26:52;;;;;;;3.53;2.80;;;19.60;99.90;;;;;;5034385;28;20021;-70
2022/06/03 09:29:19;;;;;;;;;;;19.70;99.90;;;;;;5034847;28;20032;-70
2022/06/03 09:31:58;;;;;;;3.80;2.60;;;19.90;99.90;;;;;;5033788;28;19916;-70
2022/06/03 09:34:41;;;;;;;6.90;2.17;;;20.00;99.90;;;;;;5034355;28;20070;-70
2022/06/03 09:37:15;;;;;;;6.05;2.88;;;20.00;99.90;;;;;;5034515;28;20036;-70
2022/06/03 09:39:44;;;;;;;4.07;2.33;;;20.10;99.90;;;;;;5033834;28;20041;-70
2022/06/03 09:42:11;;;;;;;8.07;2.88;;;20.10;99.90;;;;;;5033767;28;20435;-70
2022/06/03 09:44:37;;;;;;;5.32;2.83;;;20.20;99.90;;;;;;5034398;28;20029;-70
2022/06/03 09:47:06;;;;;;;5.00;2.60;;;20.30;99.90;;;;;;5036763;28;20034;-70
2022/06/03 09:49:32;;;;;;;3.22;2.80;;;20.20;99.90;;;;;;5038825;28;20076;-70
2022/06/03 09:52:00;;;;;;;5.13;2.95;;;20.00;99.90;;;;;;5033870;28;20375;-70
2022/06/03 09:54:39;;;;;;;6.10;2.75;;;20.00;99.90;;;;;;5034287;28;20048;-70
2022/06/03 09:57:15;;;;;;;4.65;2.50;;;20.10;99.90;;;;;;5034084;28;20095;-70
2022/06/03 09:59:57;;;;;;;3.13;2.28;;;20.20;99.90;;;;;;5033502;28;20417;-70
2022/06/03 10:02:24;;;;;;;5.20;2.20;;;20.30;99.90;;;;;;5034275;28;20024;-71
2022/06/03 10:04:50;;;;;;;3.08;2.10;;;20.50;99.90;;;;;;5038079;28;20386;-70
2022/06/03 10:07:16;;;;;;;6.30;2.75;;;20.60;99.90;;;;;;5048293;28;20026;-70
2022/06/03 10:12:48;;;;;;;6.88;2.35;;;20.60;99.90;;;;;;5033969;28;20032;-70
2022/06/03 10:18:22;;;;;;;4.20;2.53;;;20.90;99.90;;;;;;5033997;28;20100;-70
2022/06/03 10:20:52;;;;;;;5.53;2.40;;;21.00;99.90;;;;;;5033044;28;20018;-71
2022/06/03 10:23:28;;;;;;;5.75;2.95;;;21.20;99.90;;;;;;5033454;28;20049;-70
2022/06/03 10:26:01;;;;;;;3.40;2.45;;;21.20;99.90;;;;;;5033876;28;20149;-70
2022/06/03 10:28:34;;;;;;;2.58;2.13;;;21.10;99.90;;;;;;5033235;28;20040;-70
2022/06/03 10:31:07;;;;;;;5.25;1.95;;;21.00;99.90;;;;;;5036776;28;20394;-70
2022/06/03 10:33:34;;;;;;;2.88;2.30;;;21.10;99.90;;;;;;5018488;28;20041;-70
2022/06/03 10:36:02;;;;;;;2.95;1.90;;;21.10;99.90;;;;;;5033189;28;20075;-70
2022/06/03 10:38:30;;;;;;;5.78;2.58;;;21.20;99.90;;;;;;5033171;28;20018;-70
2022/06/03 10:40:57;;;;;;;6.78;3.10;;;21.20;99.90;;;;;;5032913;28;20033;-70
2022/06/03 10:43:32;;;;;;;3.38;2.28;;;21.20;99.90;;;;;;5033247;28;20113;-72
2022/06/03 10:46:13;;;;;;;2.53;2.33;;;21.10;99.90;;;;;;5033375;28;20101;-70
2022/06/03 10:48:40;;;;;;;7.70;2.35;;;21.10;99.90;;;;;;5033330;28;20057;-70
2022/06/03 11:02:30;;;;;;;5.03;2.53;;;21.50;99.90;;;;;;5056203;28;20080;-74
2022/06/03 11:05:12;;;;;;;2.63;2.10;;;21.50;99.90;;;;;;5056232;28;20097;-74
2022/06/03 11:07:38;;;;;;;4.22;2.55;;;21.60;99.90;;;;;;5056436;28;20021;-74
2022/06/03 11:10:08;;;;;;;3.67;2.55;;;21.70;99.90;;;;;;5055998;28;20025;-74
2022/06/03 11:12:34;;;;;;;2.58;2.38;;;21.70;99.90;;;;;;5056429;28;20107;-75
2022/06/03 11:15:00;;;;;;;2.47;2.22;;;21.80;99.90;;;;;;5056651;28;20047;-75
2022/06/03 11:17:32;;;;;;;3.28;1.95;;;21.90;99.50;;;;;;5058621;28;20029;-75
2022/06/03 11:19:58;;;;;;;2.60;2.40;;;22.00;99.40;;;;;;5059794;28;20068;-74
2022/06/03 11:22:44;;;;;;;2.60;2.40;;;22.00;97.80;;;;;;5060729;28;20017;-74
2022/06/03 11:25:18;;;;;;;3.42;2.47;;;21.90;98.40;;;;;;5061179;28;20025;-74
2022/06/03 11:28:09;;;;;;;3.33;2.35;;;21.90;97.60;;;;;;5060459;28;20036;-71
2022/06/03 11:30:59;;;;;;;2.55;2.20;;;21.80;97.60;;;;;;5058585;28;20397;-70
2022/06/03 11:33:55;;;;;;;3.63;3.00;;;21.80;98.20;;;;;;5058533;28;20466;-70
2022/06/03 11:36:35;;;;;;;3.60;2.70;;;21.70;97.50;;;;;;5039800;28;20064;-70
2022/06/03 11:39:32;;;;;;;5.15;2.35;;;21.60;98.10;;;;;;5036566;28;20025;-70
2022/06/03 11:42:27;;;;;;;3.15;2.42;;;21.60;98.40;;;;;;5057977;28;20106;-70
2022/06/03 11:45:12;;;;;;;4.10;2.65;;;21.70;98.10;;;;;;5040026;28;20021;-70
2022/06/03 11:47:51;;;;;;;5.38;2.30;;;21.70;98.20;;;;;;5040561;28;20489;-71
2022/06/03 11:50:20;;;;;;;5.60;2.50;;;21.80;98.10;;;;;;5054403;28;20029;-71
2022/06/03 11:52:48;;;;;;;3.92;2.70;;;21.90;97.70;;;;;;5060223;28;20039;-71
2022/06/03 11:55:14;;;;;;;3.88;2.40;;;21.90;97.50;;;;;;5050853;28;20390;-71
2022/06/03 11:57:53;;;;;;;4.85;2.97;;;21.90;97.60;;;;;;5053334;28;20021;-71
2022/06/03 12:00:21;;;;;;;5.22;2.50;;;22.00;97.20;;;;;;5038989;28;20552;-71
2022/06/03 12:03:18;;;;;;;4.80;2.70;;;22.10;97.40;;;;;;5056009;28;20035;-71
2022/06/03 12:05:49;;;;;;;4.05;2.05;;;22.20;96.40;;;;;;5060322;28;20107;-72
2022/06/03 12:08:21;;;;;;;;;;;22.10;97.00;;;;;;5045777;28;20029;-71
2022/06/03 12:11:05;;;;;;;3.83;2.40;;;22.00;97.10;;;;;;5059903;28;19912;-71
2022/06/03 12:13:33;;;;;;;2.72;2.13;;;22.10;97.40;;;;;;5059133;28;20108;-72
2022/06/03 12:16:00;;;;;;;3.65;2.15;;;22.20;97.40;;;;;;5045573;28;20021;-71
2022/06/03 12:18:32;;;;;;;4.47;3.10;;;22.30;96.90;;;;;;5057427;28;20471;-74
2022/06/03 12:21:00;;;;;;;4.78;2.30;;;22.40;96.00;;;;;;5048792;28;20398;-73
2022/06/03 12:23:28;;;;;;;4.75;2.90;;;22.30;96.00;;;;;;5051601;28;20025;-76
2022/06/03 12:25:54;;;;;;;2.38;1.70;;;22.20;96.30;;;;;;5047709;28;20104;-72
2022/06/03 12:28:45;;;;;;;5.43;2.42;;;22.20;96.20;;;;;;5051521;28;20071;-73
2022/06/03 12:31:19;;;;;;;3.92;2.40;;;22.20;96.00;;;;;;5054062;28;20024;-73
2022/06/03 12:34:04;;;;;;;6.70;2.90;;;22.10;96.10;;;;;;5049328;28;20028;-73
2022/06/03 12:36:37;;;;;;;2.83;2.08;;;22.10;96.00;;;;;;5059206;28;20021;-73
2022/06/03 12:39:08;;;;;;;5.70;2.50;;;22.00;96.40;;;;;;5057739;28;20018;-73
2022/06/03 12:41:46;;;;;;;;;;;22.00;96.80;;;;;;5053937;28;20029;-72
2022/06/03 12:44:49;;;;;;;2.20;2.00;;;22.10;96.50;;;;;;5037583;28;19966;-73
2022/06/03 12:47:33;;;;;;;6.70;2.28;;;22.20;96.20;;;;;;5008067;28;20068;-73
2022/06/03 12:50:05;;;;;;;3.25;2.30;;;22.30;96.00;;;;;;5019477;28;20417;-73
2022/06/03 12:52:33;;;;;;;2.80;1.90;;;22.50;95.20;;;;;;5038174;28;20060;-73
2022/06/03 12:55:01;;;;;;;4.63;2.80;;;22.50;95.90;;;;;;5020118;28;20485;-73
2022/06/03 12:57:30;;;;;;;3.38;1.95;;;22.60;95.00;;;;;;5047567;28;20022;-74
2022/06/03 13:00:12;;;;;;;6.38;2.40;;;22.70;95.00;;;;;;5038245;28;20085;-73
2022/06/03 13:02:51;;;;;;;5.25;2.65;;;22.80;93.40;;;;;;5038664;28;20032;-74
2022/06/03 13:05:37;;;;;;;2.30;2.10;;;22.90;93.60;;;;;;5047989;28;20032;-73
2022/06/03 13:08:10;;;;;;;3.20;2.38;;;22.90;93.50;;;;;;5049857;28;20075;-73
2022/06/03 13:10:54;;;;;;;2.13;2.03;;;22.90;93.10;;;;;;5057933;28;20393;-73
2022/06/03 13:13:32;;;;;;;4.93;2.80;;;22.80;93.30;;;;;;5056864;28;20044;-72
2022/06/03 13:16:17;;;;;;;3.17;2.08;;;22.80;93.30;;;;;;5052995;28;20417;-72
2022/06/03 13:18:45;;;;;;;4.28;2.40;;;22.80;93.80;;;;;;5051410;28;20115;-73
2022/06/03 13:21:13;;;;;;;4.45;2.50;;;22.70;94.00;;;;;;5040854;28;20025;-73
2022/06/03 13:23:51;;;;;;;2.85;2.10;;;22.80;94.20;;;;;;5040829;28;20120;-73
2022/06/03 13:26:23;;;;;;;4.05;1.80;;;22.80;94.30;;;;;;5057989;28;20024;-73
2022/06/03 13:28:56;;;;;;;3.08;2.13;;;23.00;93.50;;;;;;5041102;28;20041;-74
2022/06/03 13:31:47;;;;;;;2.50;2.10;;;23.00;93.30;;;;;;5051180;28;20029;-73
2022/06/03 13:34:27;;;;;;;2.80;2.20;;;23.00;93.50;;;;;;5066917;28;20029;-73
2022/06/03 13:36:54;;;;;;;3.83;2.20;;;22.90;93.50;;;;;;5064159;28;20017;-73
2022/06/03 13:39:29;;;;;;;4.80;1.98;;;22.80;93.50;;;;;;5057683;28;20017;-73
2022/06/03 13:45:03;;;;;;;3.28;2.15;;;22.70;93.30;;;;;;5056370;28;20091;-74
2022/06/03 13:47:51;;;;;;;3.40;2.05;;;22.70;93.30;;;;;;5055304;28;20024;-73
2022/06/03 13:50:35;;;;;;;2.40;2.20;;;22.80;92.80;;;;;;5056058;28;20017;-73
2022/06/03 13:53:05;;;;;;;4.05;2.63;;;22.90;92.20;;;;;;5056104;28;20087;-71
2022/06/03 13:55:51;;;;;;;3.13;2.60;;;23.00;92.30;;;;;;5057958;28;20039;-73
2022/06/03 13:58:39;;;;;;;4.30;2.25;;;23.00;91.80;;;;;;5055078;28;20028;-73
2022/06/03 14:01:31;;;;;;;3.45;2.13;;;22.80;92.40;;;;;;5040190;28;20024;-74
2022/06/03 14:04:05;;;;;;;2.05;1.85;;;22.60;92.70;;;;;;5055650;28;20487;-73
2022/06/03 14:06:38;;;;;;;4.85;2.40;;;22.50;92.80;;;;;;5061725;28;20024;-73
2022/06/03 14:09:21;;;;;;;4.82;2.30;;;22.50;93.10;;;;;;5039513;28;20378;-73
2022/06/03 14:11:53;;;;;;;3.30;2.00;;;22.70;92.90;;;;;;5061464;28;20027;-73
2022/06/03 14:14:34;;;;;;;3.47;1.92;;;22.80;93.20;;;;;;5059036;28;20529;-71
2022/06/03 14:17:30;;;;;;;2.63;2.42;;;22.90;93.20;;;;;;5034389;28;20035;-71